createdAt,value
2018-08-23T00:00:48.619Z,42.60
2018-08-23T00:01:48.641Z,41.90
2018-08-23T00:02:48.865Z,45.00
2018-08-23T00:03:48.694Z,43.70
2018-08-23T00:04:48.713Z,44.30
2018-08-23T00:05:48.740Z,44.20
2018-08-23T00:06:48.766Z,43.50
2018-08-23T00:07:48.787Z,42.90
2018-08-23T00:08:48.839Z,45.30
2018-08-23T00:09:48.839Z,44.50
2018-08-23T00:10:48.860Z,45.30
2018-08-23T00:11:48.886Z,43.70
2018-08-23T00:12:48.911Z,43.30
2018-08-23T00:13:48.939Z,42.80
2018-08-23T00:14:48.960Z,43.30
2018-08-23T00:15:48.981Z,44.00
2018-08-23T00:16:49.076Z,44.60
2018-08-23T00:17:49.030Z,43.90
2018-08-23T00:18:49.055Z,45.30
2018-08-23T00:19:49.079Z,44.70
2018-08-23T00:20:49.106Z,44.80
2018-08-23T00:21:49.129Z,44.10
2018-08-23T00:22:49.152Z,44.10
2018-08-23T00:23:49.178Z,44.40
2018-08-23T00:24:49.201Z,44.30
2018-08-23T00:25:49.227Z,44.60
2018-08-23T00:26:49.249Z,43.90
2018-08-23T00:27:49.277Z,45.20
2018-08-23T00:28:49.298Z,46.60
2018-08-23T00:29:49.321Z,47.10
2018-08-23T00:30:49.345Z,47.00
2018-08-23T00:31:49.371Z,47.40
2018-08-23T00:32:49.397Z,48.20
2018-08-23T00:33:49.420Z,47.20
2018-08-23T00:34:49.446Z,47.60
2018-08-23T00:35:49.467Z,45.90
2018-08-23T00:36:49.497Z,46.40
2018-08-23T00:37:49.516Z,44.50
2018-08-23T00:38:49.539Z,46.70
2018-08-23T00:39:49.564Z,46.20
2018-08-23T00:40:49.591Z,47.00
2018-08-23T00:41:49.615Z,45.40
2018-08-23T00:42:49.638Z,45.80
2018-08-23T00:43:49.660Z,46.30
2018-08-23T00:44:49.688Z,48.40
2018-08-23T00:45:49.710Z,47.10
2018-08-23T00:46:49.733Z,48.90
2018-08-23T00:47:49.768Z,48.40
2018-08-23T00:48:49.781Z,47.60
2018-08-23T00:49:49.807Z,47.10
2018-08-23T00:50:49.830Z,47.40
2018-08-23T00:51:49.853Z,48.90
2018-08-23T00:52:49.879Z,47.20
2018-08-23T00:53:49.905Z,48.10
2018-08-23T00:54:49.928Z,47.60
2018-08-23T00:55:49.950Z,47.60
2018-08-23T00:56:49.972Z,48.20
2018-08-23T00:57:49.997Z,47.10
2018-08-23T00:58:50.024Z,45.90
2018-08-23T00:59:50.051Z,47.40
2018-08-23T01:00:50.077Z,44.90
2018-08-23T01:01:50.093Z,45.90
2018-08-23T01:02:50.119Z,45.20
2018-08-23T01:03:50.162Z,46.70
2018-08-23T01:04:50.165Z,44.30
2018-08-23T01:05:50.191Z,45.10
2018-08-23T01:06:50.215Z,45.30
2018-08-23T01:07:50.236Z,44.60
2018-08-23T01:08:50.263Z,45.60
2018-08-23T01:09:50.283Z,44.80
2018-08-23T01:10:50.307Z,44.60
2018-08-23T01:11:50.331Z,45.20
2018-08-23T01:12:50.360Z,45.10
2018-08-23T01:13:50.381Z,44.50
2018-08-23T01:14:50.405Z,45.20
2018-08-23T01:15:50.429Z,43.60
2018-08-23T01:16:50.452Z,43.20
2018-08-23T01:17:50.477Z,45.70
2018-08-23T01:18:50.501Z,41.70
2018-08-23T01:19:50.525Z,43.30
2018-08-23T01:20:50.553Z,43.20
2018-08-23T01:21:50.572Z,44.00
2018-08-23T01:22:50.594Z,43.30
2018-08-23T01:23:50.619Z,44.30
2018-08-23T01:24:50.642Z,44.10
2018-08-23T01:25:50.667Z,43.90
2018-08-23T01:26:50.691Z,44.70
2018-08-23T01:27:50.715Z,43.00
2018-08-23T01:28:50.740Z,44.60
2018-08-23T01:29:50.761Z,44.10
2018-08-23T01:30:50.807Z,43.00
2018-08-23T01:31:50.810Z,43.30
2018-08-23T01:32:50.831Z,44.00
2018-08-23T01:33:50.854Z,44.60
2018-08-23T01:34:50.879Z,43.60
2018-08-23T01:35:50.904Z,44.00
2018-08-23T01:36:50.931Z,44.70
2018-08-23T01:37:50.951Z,44.70
2018-08-23T01:38:50.988Z,42.00
2018-08-23T01:39:50.997Z,42.70
2018-08-23T01:40:51.022Z,41.40
2018-08-23T01:41:51.044Z,43.60
2018-08-23T01:42:51.067Z,43.50
2018-08-23T01:43:51.092Z,40.30
2018-08-23T01:44:51.113Z,42.30
2018-08-23T01:45:51.139Z,42.60
2018-08-23T01:46:51.163Z,41.90
2018-08-23T01:47:51.185Z,42.60
2018-08-23T01:48:51.209Z,42.00
2018-08-23T01:49:51.231Z,42.30
2018-08-23T01:50:51.255Z,41.10
2018-08-23T01:51:51.278Z,42.70
2018-08-23T01:52:51.301Z,42.20
2018-08-23T01:53:51.328Z,41.60
2018-08-23T01:54:51.349Z,42.50
2018-08-23T01:55:51.372Z,42.30
2018-08-23T01:56:51.403Z,40.90
2018-08-23T01:57:51.419Z,43.00
2018-08-23T01:58:51.446Z,42.30
2018-08-23T01:59:51.470Z,42.20
2018-08-23T02:00:51.491Z,41.90
2018-08-23T02:01:51.516Z,43.20
2018-08-23T02:02:51.537Z,43.40
2018-08-23T02:03:51.563Z,43.10
2018-08-23T02:04:51.586Z,42.20
2018-08-23T02:05:51.607Z,41.80
2018-08-23T02:06:51.632Z,41.80
2018-08-23T02:07:51.654Z,41.90
2018-08-23T02:08:51.677Z,41.90
2018-08-23T02:09:51.702Z,40.90
2018-08-23T02:10:51.727Z,43.00
2018-08-23T02:11:51.750Z,44.20
2018-08-23T02:12:51.773Z,44.10
2018-08-23T02:13:51.794Z,43.80
2018-08-23T02:14:51.821Z,42.70
2018-08-23T02:15:51.846Z,44.10
2018-08-23T02:16:51.866Z,42.60
2018-08-23T02:17:51.893Z,43.10
2018-08-23T02:18:51.913Z,42.40
2018-08-23T02:19:51.935Z,42.50
2018-08-23T02:20:51.957Z,42.40
2018-08-23T02:21:51.981Z,43.40
2018-08-23T02:22:52.008Z,41.70
2018-08-23T02:23:52.033Z,44.00
2018-08-23T02:24:52.051Z,42.20
2018-08-23T02:25:52.076Z,42.10
2018-08-23T02:26:52.101Z,44.50
2018-08-23T02:27:52.124Z,44.30
2018-08-23T02:28:52.145Z,42.20
2018-08-23T02:29:52.169Z,45.20
2018-08-23T02:30:52.193Z,41.40
2018-08-23T02:31:52.217Z,43.30
2018-08-23T02:32:52.240Z,40.50
2018-08-23T02:33:52.260Z,42.50
2018-08-23T02:34:52.436Z,44.10
2018-08-23T02:35:52.310Z,44.90
2018-08-23T02:36:52.333Z,43.90
2018-08-23T02:37:52.356Z,44.20
2018-08-23T02:38:52.377Z,43.30
2018-08-23T02:39:52.401Z,44.40
2018-08-23T02:40:52.431Z,43.80
2018-08-23T02:41:52.454Z,44.00
2018-08-23T02:42:52.476Z,44.10
2018-08-23T02:43:52.502Z,43.40
2018-08-23T02:44:52.521Z,45.00
2018-08-23T02:45:52.545Z,44.80
2018-08-23T02:46:52.565Z,44.00
2018-08-23T02:47:52.597Z,47.90
2018-08-23T02:48:52.614Z,44.20
2018-08-23T02:49:52.635Z,43.80
2018-08-23T02:50:52.661Z,46.70
2018-08-23T02:51:52.681Z,44.60
2018-08-23T02:52:52.706Z,45.10
2018-08-23T02:53:52.730Z,46.70
2018-08-23T02:54:52.751Z,45.70
2018-08-23T02:55:52.782Z,43.80
2018-08-23T02:56:52.797Z,47.10
2018-08-23T02:57:52.820Z,48.20
2018-08-23T02:58:52.847Z,46.70
2018-08-23T02:59:52.871Z,47.00
2018-08-23T03:00:52.895Z,46.10
2018-08-23T03:01:52.916Z,45.40
2018-08-23T03:02:52.937Z,46.10
2018-08-23T03:03:52.960Z,44.30
2018-08-23T03:04:52.983Z,46.00
2018-08-23T03:05:53.012Z,45.70
2018-08-23T03:06:53.032Z,46.40
2018-08-23T03:07:53.057Z,46.80
2018-08-23T03:08:53.078Z,46.10
2018-08-23T03:09:53.101Z,46.40
2018-08-23T03:10:53.125Z,44.50
2018-08-23T03:11:53.151Z,44.80
2018-08-23T03:12:53.171Z,45.20
2018-08-23T03:13:53.199Z,44.80
2018-08-23T03:14:53.216Z,44.50
2018-08-23T03:15:53.242Z,43.50
2018-08-23T03:16:53.264Z,45.50
2018-08-23T03:17:53.286Z,43.80
2018-08-23T03:18:53.311Z,45.20
2018-08-23T03:19:53.335Z,43.60
2018-08-23T03:20:53.355Z,43.50
2018-08-23T03:21:53.377Z,44.30
2018-08-23T03:22:53.406Z,46.60
2018-08-23T03:23:53.424Z,44.50
2018-08-23T03:24:53.446Z,45.90
2018-08-23T03:25:53.472Z,46.90
2018-08-23T03:26:53.500Z,45.20
2018-08-23T03:27:53.517Z,45.40
2018-08-23T03:28:53.541Z,47.10
2018-08-23T03:29:53.564Z,46.20
2018-08-23T03:30:53.586Z,44.90
2018-08-23T03:31:53.609Z,45.00
2018-08-23T03:32:53.632Z,46.40
2018-08-23T03:33:53.656Z,48.00
2018-08-23T03:34:53.683Z,45.30
2018-08-23T03:35:53.701Z,47.30
2018-08-23T03:36:53.725Z,46.90
2018-08-23T03:37:53.750Z,45.90
2018-08-23T03:38:53.770Z,46.80
2018-08-23T03:39:53.797Z,45.80
2018-08-23T03:40:53.816Z,46.80
2018-08-23T03:41:53.839Z,48.70
2018-08-23T03:42:53.864Z,47.90
2018-08-23T03:43:53.889Z,48.00
2018-08-23T03:44:53.911Z,50.20
2018-08-23T03:45:53.934Z,48.40
2018-08-23T03:46:53.958Z,48.50
2018-08-23T03:47:53.980Z,51.80
2018-08-23T03:48:54.001Z,49.40
2018-08-23T03:49:54.028Z,50.00
2018-08-23T03:50:54.051Z,50.40
2018-08-23T03:51:54.073Z,50.20
2018-08-23T03:52:54.092Z,51.90
2018-08-23T03:53:54.118Z,51.30
2018-08-23T03:54:54.142Z,50.00
2018-08-23T03:55:54.168Z,51.60
2018-08-23T03:56:54.187Z,50.60
2018-08-23T03:57:54.209Z,53.00
2018-08-23T03:58:54.231Z,51.70
2018-08-23T03:59:54.256Z,51.50
2018-08-23T04:00:54.277Z,55.10
2018-08-23T04:01:54.301Z,52.80
2018-08-23T04:02:54.325Z,52.80
2018-08-23T04:03:54.353Z,53.50
2018-08-23T04:04:54.372Z,53.80
2018-08-23T04:05:54.446Z,54.90
2018-08-23T04:06:54.415Z,53.20
2018-08-23T04:07:54.438Z,56.90
2018-08-23T04:08:54.461Z,54.80
2018-08-23T04:09:54.483Z,53.10
2018-08-23T04:10:54.505Z,54.30
2018-08-23T04:11:54.531Z,55.40
2018-08-23T04:12:54.551Z,53.30
2018-08-23T04:13:54.577Z,52.20
2018-08-23T04:14:54.643Z,54.20
2018-08-23T04:15:54.622Z,54.00
2018-08-23T04:16:54.642Z,52.10
2018-08-23T04:17:54.665Z,52.40
2018-08-23T04:18:54.692Z,53.50
2018-08-23T04:19:54.712Z,51.80
2018-08-23T04:20:54.736Z,55.10
2018-08-23T04:21:54.757Z,53.40
2018-08-23T04:22:54.925Z,53.30
2018-08-23T04:23:54.803Z,54.00
2018-08-23T04:24:54.828Z,55.50
2018-08-23T04:25:54.848Z,55.10
2018-08-23T04:26:54.871Z,55.00
2018-08-23T04:27:54.898Z,52.90
2018-08-23T04:28:54.917Z,53.30
2018-08-23T04:29:54.939Z,53.50
2018-08-23T04:30:54.964Z,53.20
2018-08-23T04:31:54.988Z,54.40
2018-08-23T04:32:55.012Z,52.00
2018-08-23T04:33:55.033Z,53.00
2018-08-23T04:34:55.055Z,51.30
2018-08-23T04:35:55.082Z,53.70
2018-08-23T04:36:55.101Z,53.00
2018-08-23T04:37:55.126Z,52.30
2018-08-23T04:38:55.146Z,52.40
2018-08-23T04:39:55.170Z,53.20
2018-08-23T04:40:55.191Z,54.70
2018-08-23T04:41:55.216Z,53.10
2018-08-23T04:42:55.240Z,52.00
2018-08-23T04:43:55.262Z,52.30
2018-08-23T04:44:55.288Z,52.30
2018-08-23T04:45:55.308Z,51.50
2018-08-23T04:46:55.330Z,51.70
2018-08-23T04:47:55.353Z,51.70
2018-08-23T04:48:55.379Z,52.90
2018-08-23T04:49:55.398Z,53.10
2018-08-23T04:50:55.423Z,52.00
2018-08-23T04:51:55.451Z,50.70
2018-08-23T04:52:55.468Z,52.00
2018-08-23T04:53:55.491Z,52.10
2018-08-23T04:54:55.512Z,51.60
2018-08-23T04:55:55.536Z,51.70
2018-08-23T04:56:55.561Z,52.80
2018-08-23T04:57:55.585Z,51.10
2018-08-23T04:58:55.604Z,51.00
2018-08-23T04:59:55.632Z,50.30
2018-08-23T05:00:55.675Z,48.70
2018-08-23T05:01:55.673Z,48.90
2018-08-23T05:02:55.700Z,50.20
2018-08-23T05:03:55.733Z,51.40
2018-08-23T05:04:55.742Z,48.90
2018-08-23T05:05:55.765Z,49.20
2018-08-23T05:06:55.788Z,48.90
2018-08-23T05:07:55.811Z,48.50
2018-08-23T05:08:55.836Z,50.60
2018-08-23T05:09:55.868Z,49.50
2018-08-23T05:10:55.882Z,50.40
2018-08-23T05:11:55.907Z,49.30
2018-08-23T05:12:55.930Z,48.20
2018-08-23T05:13:55.986Z,48.00
2018-08-23T05:14:55.975Z,47.00
2018-08-23T05:15:55.999Z,47.30
2018-08-23T05:16:56.021Z,46.80
2018-08-23T05:17:56.048Z,46.00
2018-08-23T05:18:56.075Z,48.30
2018-08-23T05:19:56.091Z,47.40
2018-08-23T05:20:56.115Z,46.40
2018-08-23T05:21:56.134Z,48.40
2018-08-23T05:22:56.168Z,46.30
2018-08-23T05:23:56.184Z,45.00
2018-08-23T05:24:56.206Z,49.40
2018-08-23T05:25:56.228Z,46.90
2018-08-23T05:26:56.254Z,45.80
2018-08-23T05:27:56.277Z,46.70
2018-08-23T05:28:56.297Z,46.50
2018-08-23T05:29:56.381Z,46.70
2018-08-23T05:30:56.348Z,46.80
2018-08-23T05:31:56.371Z,46.20
2018-08-23T05:32:56.395Z,46.10
2018-08-23T05:33:56.415Z,46.50
2018-08-23T05:34:56.438Z,45.00
2018-08-23T05:35:56.461Z,47.90
2018-08-23T05:36:56.484Z,45.70
2018-08-23T05:37:56.507Z,46.80
2018-08-23T05:38:56.529Z,48.70
2018-08-23T05:39:56.557Z,46.70
2018-08-23T05:40:56.579Z,45.90
2018-08-23T05:41:56.599Z,47.50
2018-08-23T05:42:56.624Z,46.80
2018-08-23T05:43:56.649Z,46.10
2018-08-23T05:44:56.672Z,43.90
2018-08-23T05:45:56.697Z,44.30
2018-08-23T05:46:56.717Z,46.00
2018-08-23T05:47:56.744Z,43.50
2018-08-23T05:48:56.765Z,44.50
2018-08-23T05:49:56.791Z,45.00
2018-08-23T05:50:56.813Z,45.00
2018-08-23T05:51:56.837Z,45.80
2018-08-23T05:52:56.859Z,43.40
2018-08-23T05:53:56.884Z,45.50
2018-08-23T05:54:56.907Z,45.90
2018-08-23T05:55:56.928Z,44.10
2018-08-23T05:56:56.952Z,43.00
2018-08-23T05:57:56.980Z,43.80
2018-08-23T05:58:56.999Z,44.60
2018-08-23T05:59:57.023Z,44.30
2018-08-23T06:00:57.048Z,44.20
2018-08-23T06:01:57.073Z,43.00
2018-08-23T06:02:57.099Z,43.50
2018-08-23T06:03:57.119Z,44.40
2018-08-23T06:04:57.141Z,45.50
2018-08-23T06:05:57.166Z,43.90
2018-08-23T06:06:57.191Z,42.90
2018-08-23T06:07:57.216Z,44.50
2018-08-23T06:08:57.235Z,43.60
2018-08-23T06:09:57.263Z,43.00
2018-08-23T06:10:57.285Z,45.30
2018-08-23T06:11:57.311Z,45.50
2018-08-23T06:12:57.333Z,45.50
2018-08-23T06:13:57.358Z,45.40
2018-08-23T06:14:57.386Z,44.40
2018-08-23T06:15:57.406Z,54.60
2018-08-23T06:16:57.431Z,47.40
2018-08-23T06:17:57.451Z,47.80
2018-08-23T06:18:57.477Z,46.20
2018-08-23T06:19:57.501Z,44.90
2018-08-23T06:20:57.524Z,43.90
2018-08-23T06:21:57.546Z,43.70
2018-08-23T06:22:57.573Z,45.30
2018-08-23T06:23:57.598Z,45.10
2018-08-23T06:24:57.619Z,45.00
2018-08-23T06:25:57.643Z,42.50
2018-08-23T06:26:57.673Z,42.20
2018-08-23T06:27:57.694Z,41.70
2018-08-23T06:28:57.717Z,43.40
2018-08-23T06:29:57.739Z,43.30
2018-08-23T06:30:57.765Z,43.40
2018-08-23T06:31:57.791Z,41.30
2018-08-23T06:32:57.914Z,42.40
2018-08-23T06:33:57.885Z,41.50
2018-08-23T06:34:57.865Z,42.60
2018-08-23T06:35:57.891Z,42.10
2018-08-23T06:36:57.910Z,44.00
2018-08-23T06:37:57.935Z,41.90
2018-08-23T06:38:57.962Z,43.40
2018-08-23T06:39:57.988Z,42.20
2018-08-23T06:40:58.006Z,44.50
2018-08-23T06:41:58.031Z,43.70
2018-08-23T06:42:58.055Z,43.00
2018-08-23T06:43:58.079Z,42.80
2018-08-23T06:44:58.104Z,43.90
2018-08-23T06:45:58.178Z,42.80
2018-08-23T06:46:58.152Z,40.30
2018-08-23T06:47:58.177Z,41.20
2018-08-23T06:48:58.229Z,41.70
2018-08-23T06:49:58.225Z,41.00
2018-08-23T06:50:58.251Z,41.70
2018-08-23T06:51:58.274Z,41.60
2018-08-23T06:52:58.298Z,41.20
2018-08-23T06:53:58.324Z,41.10
2018-08-23T06:54:58.347Z,39.80
2018-08-23T06:55:58.371Z,40.70
2018-08-23T06:56:58.395Z,39.30
2018-08-23T06:57:58.422Z,41.00
2018-08-23T06:58:58.514Z,41.20
2018-08-23T06:59:58.472Z,41.60
2018-08-23T07:00:58.495Z,40.40
2018-08-23T07:01:58.522Z,40.50
2018-08-23T07:02:58.545Z,40.40
2018-08-23T07:03:58.571Z,41.20
2018-08-23T07:04:58.592Z,40.90
2018-08-23T07:05:58.639Z,41.30
2018-08-23T07:06:58.642Z,40.10
2018-08-23T07:07:58.665Z,40.70
2018-08-23T07:08:58.740Z,40.20
2018-08-23T07:09:58.712Z,39.40
2018-08-23T07:10:58.738Z,38.60
2018-08-23T07:11:58.762Z,38.80
2018-08-23T07:12:58.789Z,39.50
2018-08-23T07:13:58.810Z,39.90
2018-08-23T07:14:58.836Z,40.90
2018-08-23T07:15:58.860Z,38.80
2018-08-23T07:16:58.885Z,40.00
2018-08-23T07:17:58.913Z,41.30
2018-08-23T07:18:58.937Z,40.40
2018-08-23T07:19:58.959Z,40.40
2018-08-23T07:20:58.987Z,41.50
2018-08-23T07:21:59.007Z,40.20
2018-08-23T07:22:59.032Z,39.80
2018-08-23T07:23:59.057Z,41.50
2018-08-23T07:24:59.084Z,41.90
2018-08-23T07:25:59.108Z,41.50
2018-08-23T07:26:59.130Z,42.20
2018-08-23T07:27:59.155Z,41.90
2018-08-23T07:28:59.203Z,42.30
2018-08-23T07:29:59.246Z,41.20
2018-08-23T07:30:59.229Z,41.40
2018-08-23T07:31:59.558Z,41.90
2018-08-23T07:32:59.731Z,42.80
2018-08-23T07:33:59.328Z,42.20
2018-08-23T07:34:59.329Z,43.20
2018-08-23T07:35:59.355Z,44.40
2018-08-23T07:36:59.380Z,43.70
2018-08-23T07:37:59.404Z,43.40
2018-08-23T07:38:59.431Z,42.00
2018-08-23T07:39:59.457Z,42.20
2018-08-23T07:40:59.478Z,42.90
2018-08-23T07:41:59.503Z,40.10
2018-08-23T07:42:59.579Z,38.50
2018-08-23T07:43:59.557Z,39.90
2018-08-23T07:44:59.578Z,39.30
2018-08-23T07:45:59.617Z,39.30
2018-08-23T07:46:59.630Z,39.00
2018-08-23T07:48:00.105Z,38.90
2018-08-23T07:48:59.703Z,38.50
2018-08-23T07:49:59.703Z,38.00
2018-08-23T07:50:59.731Z,35.40
2018-08-23T07:51:59.758Z,39.50
2018-08-23T07:52:59.904Z,41.50
2018-08-23T07:53:59.805Z,38.30
2018-08-23T07:54:59.833Z,32.00
2018-08-23T07:55:59.857Z,32.60
2018-08-23T07:56:59.881Z,30.60
2018-08-23T07:57:59.907Z,29.70
2018-08-23T07:58:59.931Z,29.90
2018-08-23T07:59:59.963Z,28.90
2018-08-23T08:00:59.984Z,30.10
2018-08-23T08:02:00.008Z,28.80
2018-08-23T08:03:00.033Z,29.70
2018-08-23T08:04:00.057Z,28.40
2018-08-23T08:05:00.085Z,29.30
2018-08-23T08:06:00.107Z,28.30
2018-08-23T08:07:00.136Z,28.20
2018-08-23T08:08:00.158Z,25.10
2018-08-23T08:09:00.186Z,26.50
2018-08-23T08:10:00.211Z,25.40
2018-08-23T08:11:00.238Z,24.40
2018-08-23T08:12:00.263Z,25.50
2018-08-23T08:13:00.287Z,25.10
2018-08-23T08:14:00.311Z,26.20
2018-08-23T08:15:00.355Z,26.30
2018-08-23T08:16:00.366Z,25.40
2018-08-23T08:17:00.387Z,25.50
2018-08-23T08:18:00.417Z,26.30
2018-08-23T08:19:00.442Z,25.90
2018-08-23T08:20:00.465Z,26.70
2018-08-23T08:21:00.616Z,26.40
2018-08-23T08:22:00.517Z,23.30
2018-08-23T08:23:00.543Z,24.40
2018-08-23T08:24:00.573Z,25.40
2018-08-23T08:25:00.595Z,25.90
2018-08-23T08:26:00.623Z,27.00
2018-08-23T08:27:00.668Z,26.40
2018-08-23T08:28:00.674Z,26.90
2018-08-23T08:29:00.697Z,26.00
2018-08-23T08:30:00.723Z,27.00
2018-08-23T08:31:00.750Z,25.70
2018-08-23T08:32:00.776Z,27.40
2018-08-23T08:33:00.836Z,26.40
2018-08-23T08:34:01.077Z,25.20
2018-08-23T08:35:00.854Z,26.60
2018-08-23T08:36:00.880Z,26.40
2018-08-23T08:37:00.905Z,26.50
2018-08-23T08:38:00.931Z,27.70
2018-08-23T08:39:00.958Z,27.30
2018-08-23T08:40:00.986Z,25.90
2018-08-23T08:41:01.209Z,25.30
2018-08-23T08:42:01.069Z,26.80
2018-08-23T08:43:01.062Z,26.70
2018-08-23T08:44:01.089Z,25.30
2018-08-23T08:45:01.114Z,24.30
2018-08-23T08:46:01.141Z,24.80
2018-08-23T08:47:01.169Z,24.00
2018-08-23T08:48:01.192Z,23.60
2018-08-23T08:49:01.264Z,22.40
2018-08-23T08:50:01.243Z,21.60
2018-08-23T08:51:01.271Z,21.80
2018-08-23T08:52:01.298Z,21.90
2018-08-23T08:53:01.325Z,21.00
2018-08-23T08:54:01.347Z,20.00
2018-08-23T08:55:01.375Z,19.30
2018-08-23T08:56:01.401Z,20.80
2018-08-23T08:57:01.490Z,20.50
2018-08-23T08:58:01.453Z,20.90
2018-08-23T08:59:01.481Z,22.30
2018-08-23T09:00:01.505Z,22.30
2018-08-23T09:01:01.538Z,21.30
2018-08-23T09:02:01.561Z,21.20
2018-08-23T09:03:01.590Z,19.30
2018-08-23T09:04:01.619Z,18.30
2018-08-23T09:05:01.642Z,20.00
2018-08-23T09:06:01.663Z,19.10
2018-08-23T09:07:01.690Z,18.70
2018-08-23T09:08:01.717Z,19.60
2018-08-23T09:09:01.743Z,18.80
2018-08-23T09:10:01.767Z,17.70
2018-08-23T09:11:01.796Z,18.30
2018-08-23T09:12:01.819Z,18.10
2018-08-23T09:13:01.845Z,17.60
2018-08-23T09:14:01.874Z,18.10
2018-08-23T09:15:01.898Z,18.00
2018-08-23T09:16:01.925Z,17.30
2018-08-23T09:17:01.958Z,17.90
2018-08-23T09:18:01.981Z,17.70
2018-08-23T09:19:02.003Z,18.40
2018-08-23T09:20:02.036Z,19.80
2018-08-23T09:21:02.060Z,19.50
2018-08-23T09:22:02.082Z,18.90
2018-08-23T09:23:02.111Z,17.50
2018-08-23T09:24:02.138Z,16.40
2018-08-23T09:25:02.164Z,16.20
2018-08-23T09:26:02.190Z,16.20
2018-08-23T09:27:02.217Z,15.00
2018-08-23T09:28:02.244Z,15.10
2018-08-23T09:29:02.267Z,14.50
2018-08-23T09:30:02.297Z,14.80
2018-08-23T09:31:02.322Z,13.40
2018-08-23T09:32:02.388Z,13.60
2018-08-23T09:33:02.377Z,14.00
2018-08-23T09:34:02.401Z,12.70
2018-08-23T09:35:02.485Z,12.30
2018-08-23T09:36:02.455Z,12.50
2018-08-23T09:37:02.515Z,13.10
2018-08-23T09:38:02.510Z,13.00
2018-08-23T09:39:02.534Z,12.60
2018-08-23T09:40:02.561Z,50.20
2018-08-23T09:41:02.589Z,23.70
2018-08-23T09:42:02.614Z,15.40
2018-08-23T09:43:02.815Z,15.00
2018-08-23T09:44:02.670Z,16.30
2018-08-23T09:45:02.695Z,15.90
2018-08-23T09:46:02.721Z,16.30
2018-08-23T09:47:02.746Z,15.40
2018-08-23T09:48:02.778Z,16.60
2018-08-23T09:49:02.803Z,13.30
2018-08-23T09:50:02.869Z,11.90
2018-08-23T09:51:02.888Z,13.70
2018-08-23T09:52:02.882Z,14.00
2018-08-23T09:53:02.911Z,12.70
2018-08-23T09:54:02.936Z,12.50
2018-08-23T09:55:02.962Z,12.30
2018-08-23T09:56:02.990Z,12.30
2018-08-23T09:57:03.019Z,11.70
2018-08-23T09:58:03.045Z,13.50
2018-08-23T09:59:03.079Z,16.30
2018-08-23T10:00:03.100Z,11.60
2018-08-23T10:01:03.127Z,10.90
2018-08-23T10:02:03.154Z,13.10
2018-08-23T10:03:03.182Z,12.30
2018-08-23T10:04:03.210Z,11.40
2018-08-23T10:05:03.239Z,11.00
2018-08-23T10:06:03.265Z,13.40
2018-08-23T10:07:03.295Z,12.30
2018-08-23T10:08:03.316Z,11.90
2018-08-23T10:09:03.346Z,11.90
2018-08-23T10:10:03.370Z,26.00
2018-08-23T10:11:03.399Z,13.10
2018-08-23T10:12:03.431Z,12.90
2018-08-23T10:13:03.452Z,13.40
2018-08-23T10:14:03.481Z,13.60
2018-08-23T10:15:03.508Z,14.00
2018-08-23T10:16:03.536Z,13.50
2018-08-23T10:17:03.563Z,12.80
2018-08-23T10:18:03.590Z,13.40
2018-08-23T10:19:03.673Z,12.30
2018-08-23T10:20:03.698Z,13.80
2018-08-23T10:21:03.672Z,13.30
2018-08-23T10:22:04.153Z,13.00
2018-08-23T10:23:03.727Z,12.60
2018-08-23T10:24:03.760Z,13.50
2018-08-23T10:25:03.785Z,11.50
2018-08-23T10:26:03.809Z,13.70
2018-08-23T10:27:03.837Z,13.10
2018-08-23T10:28:03.866Z,13.20
2018-08-23T10:29:03.893Z,13.60
2018-08-23T10:30:03.924Z,13.50
2018-08-23T10:31:03.949Z,11.60
2018-08-23T10:32:04.019Z,13.50
2018-08-23T10:33:04.004Z,14.40
2018-08-23T10:34:04.032Z,13.40
2018-08-23T10:35:04.069Z,12.50
2018-08-23T10:36:04.088Z,12.60
2018-08-23T10:37:04.119Z,14.20
2018-08-23T10:38:04.195Z,13.90
2018-08-23T10:39:04.174Z,14.10
2018-08-23T10:40:04.204Z,15.70
2018-08-23T10:41:04.230Z,14.50
2018-08-23T10:42:04.316Z,14.20
2018-08-23T10:43:04.639Z,14.10
2018-08-23T10:44:04.719Z,14.80
2018-08-23T10:45:04.355Z,15.80
2018-08-23T10:46:04.372Z,15.30
2018-08-23T10:47:04.400Z,13.70
2018-08-23T10:48:04.429Z,14.20
2018-08-23T10:49:04.454Z,12.80
2018-08-23T10:50:04.485Z,12.50
2018-08-23T10:51:04.594Z,14.70
2018-08-23T10:52:04.540Z,12.70
2018-08-23T10:53:04.568Z,13.20
2018-08-23T10:54:04.600Z,14.90
2018-08-23T10:55:04.624Z,13.50
2018-08-23T10:56:04.652Z,13.70
2018-08-23T10:57:04.680Z,13.50
2018-08-23T10:58:04.711Z,13.40
2018-08-23T10:59:04.776Z,12.90
2018-08-23T11:00:04.812Z,14.00
2018-08-23T11:01:04.789Z,14.30
2018-08-23T11:02:04.820Z,14.80
2018-08-23T11:03:05.148Z,14.00
2018-08-23T11:04:04.874Z,14.90
2018-08-23T11:05:04.902Z,14.80
2018-08-23T11:06:04.957Z,14.20
2018-08-23T11:07:04.957Z,12.80
2018-08-23T11:08:04.987Z,12.50
2018-08-23T11:09:05.010Z,15.40
2018-08-23T11:10:05.041Z,14.90
2018-08-23T11:11:05.071Z,16.40
2018-08-23T11:12:05.094Z,15.20
2018-08-23T11:13:05.123Z,14.10
2018-08-23T11:14:05.151Z,15.90
2018-08-23T11:15:05.180Z,17.60
2018-08-23T11:16:05.205Z,17.60
2018-08-23T11:17:05.358Z,16.60
2018-08-23T11:18:05.263Z,17.20
2018-08-23T11:19:05.290Z,16.40
2018-08-23T11:20:05.317Z,15.90
2018-08-23T11:21:05.347Z,16.10
2018-08-23T11:22:05.370Z,16.40
2018-08-23T11:23:05.414Z,15.60
2018-08-23T11:24:05.425Z,15.70
2018-08-23T11:25:05.463Z,16.50
2018-08-23T11:26:05.480Z,16.50
2018-08-23T11:27:05.511Z,15.40
2018-08-23T11:28:05.538Z,15.90
2018-08-23T11:29:05.564Z,15.30
2018-08-23T11:30:05.590Z,17.80
2018-08-23T11:31:05.620Z,16.50
2018-08-23T11:32:05.646Z,16.90
2018-08-23T11:33:05.673Z,16.90
2018-08-23T11:34:05.702Z,16.10
2018-08-23T11:35:05.733Z,15.50
2018-08-23T11:36:05.758Z,14.70
2018-08-23T11:37:05.786Z,15.00
2018-08-23T11:38:05.817Z,14.70
2018-08-23T11:39:05.943Z,13.90
2018-08-23T11:40:05.871Z,15.50
2018-08-23T11:41:05.899Z,14.40
2018-08-23T11:42:05.926Z,15.00
2018-08-23T11:43:05.955Z,14.80
2018-08-23T11:44:05.981Z,12.90
2018-08-23T11:45:06.010Z,14.20
2018-08-23T11:46:06.036Z,14.90
2018-08-23T11:47:06.064Z,14.60
2018-08-23T11:48:06.091Z,14.50
2018-08-23T11:49:06.122Z,14.80
2018-08-23T11:50:06.148Z,15.10
2018-08-23T11:51:06.176Z,15.50
2018-08-23T11:52:06.207Z,15.40
2018-08-23T11:53:06.277Z,13.40
2018-08-23T11:54:06.260Z,12.90
2018-08-23T11:55:06.288Z,13.80
2018-08-23T11:56:06.322Z,12.20
2018-08-23T11:57:06.344Z,15.20
2018-08-23T11:58:06.466Z,13.50
2018-08-23T11:59:06.465Z,11.90
2018-08-23T12:00:06.432Z,11.60
2018-08-23T12:01:06.458Z,12.10
2018-08-23T12:02:06.484Z,12.40
2018-08-23T12:03:06.514Z,14.10
2018-08-23T12:04:06.545Z,13.20
2018-08-23T12:05:06.568Z,14.10
2018-08-23T12:06:06.597Z,12.50
2018-08-23T12:07:06.634Z,13.10
2018-08-23T12:08:06.657Z,11.90
2018-08-23T12:09:06.684Z,12.30
2018-08-23T12:10:06.711Z,13.20
2018-08-23T12:11:06.740Z,14.60
2018-08-23T12:12:06.769Z,13.60
2018-08-23T12:13:06.797Z,13.20
2018-08-23T12:14:06.825Z,13.00
2018-08-23T12:15:06.854Z,13.50
2018-08-23T12:16:06.908Z,13.10
2018-08-23T12:17:06.907Z,12.80
2018-08-23T12:18:06.935Z,12.50
2018-08-23T12:19:07.016Z,17.80
2018-08-23T12:20:06.995Z,13.10
2018-08-23T12:21:07.022Z,13.10
2018-08-23T12:22:07.048Z,13.80
2018-08-23T12:23:07.077Z,12.10
2018-08-23T12:24:07.104Z,12.00
2018-08-23T12:25:07.135Z,10.60
2018-08-23T12:26:07.190Z,10.80
2018-08-23T12:27:07.192Z,9.70
2018-08-23T12:28:07.220Z,10.50
2018-08-23T12:29:07.248Z,10.90
2018-08-23T12:30:07.273Z,11.30
2018-08-23T12:31:07.308Z,10.10
2018-08-23T12:32:07.332Z,10.30
2018-08-23T12:33:07.357Z,10.80
2018-08-23T12:34:07.387Z,9.20
2018-08-23T12:35:07.417Z,10.70
2018-08-23T12:36:07.445Z,11.10
2018-08-23T12:37:07.471Z,9.90
2018-08-23T12:38:07.519Z,9.20
2018-08-23T12:39:07.832Z,9.70
2018-08-23T12:40:07.560Z,9.20
2018-08-23T12:41:07.651Z,9.60
2018-08-23T12:42:07.613Z,8.20
2018-08-23T12:43:07.644Z,9.80
2018-08-23T12:44:07.669Z,12.00
2018-08-23T12:45:07.699Z,12.10
2018-08-23T12:46:07.729Z,11.60
2018-08-23T12:47:07.757Z,11.20
2018-08-23T12:48:07.782Z,10.30
2018-08-23T12:49:07.810Z,10.60
2018-08-23T12:50:07.838Z,10.50
2018-08-23T12:51:07.867Z,10.30
2018-08-23T12:52:07.895Z,12.40
2018-08-23T12:53:07.932Z,12.70